Adventure — SVKA — position and weather

sailwx.info

Track history (hours):
 
Tides and Currents Weather Stations Pressure Air Temp Water Temp Dewpoint Dewpoint Depression Visibility Wind Speed Wind Dir Waves Ship Positions

Adventure

Last reported at 2018-Jun-02 13:47 UTC. Time now 2018-Jun-22 18:47 UTC.
Position N 02°03' E 102°09'.
Warning: this ship's position is 20 days out of date.

Length 333 m; draft 11 m.

Type: Tanker. MMSI: 240644000.

Date/timePositionNaut miles runAvg speedWind from/ knotsBaromVisibWave heightAir tempDewpointWater temp
2018-Jun-02 13:47N 02°03' E 102°09'64 9.8
2018-Jun-02 07:16N 01°30' E 103°04'3 9.3
2018-Jun-02 06:55N 01°28' E 103°07'6 8.7
2018-Jun-02 06:11N 01°24' E 103°12'4 8.4
2018-Jun-02 05:42N 01°22' E 103°15'2 8.2
2018-Jun-02 05:31N 01°21' E 103°16'4 8.0
2018-Jun-02 04:57N 01°18' E 103°20'4 7.9
2018-Jun-02 04:30N 01°16' E 103°23'4 7.7
2018-Jun-02 04:00N 01°14' E 103°26'5 9.5
2018-Jun-02 03:30N 01°12' E 103°30'611.0
2018-Jun-02 03:00N 01°12' E 103°36'511.1
2018-Jun-02 02:30N 01°10' E 103°41'5 9.1
2018-Jun-02 02:01N 01°09' E 103°46'510.5
2018-Jun-02 01:30N 01°11' E 103°50'3 6.9
2018-Jun-02 01:00N 01°13' E 103°53'3 4.2
2018-Jun-02 00:24N 01°15' E 103°55'0 0.2
2018-Jun-02 00:00N 01°15' E 103°55'0 0.0
2018-Jun-01 23:30N 01°15' E 103°55'0 0.0
2018-Jun-01 23:00N 01°15' E 103°55'0 0.0
2018-Jun-01 22:30N 01°15' E 103°55'0 0.1
2018-Jun-01 22:00N 01°15' E 103°55'0 0.1
2018-Jun-01 21:30N 01°15' E 103°55'0 0.1
2018-Jun-01 20:54N 01°15' E 103°55'0 0.1
2018-Jun-01 20:27N 01°15' E 103°55'0 0.1
2018-Jun-01 20:00N 01°15' E 103°55'0 0.0
2018-Jun-01 19:30N 01°15' E 103°55'0 0.0
2018-Jun-01 19:00N 01°15' E 103°55'0 0.0
2018-Jun-01 18:27N 01°15' E 103°55'0 0.2
2018-Jun-01 18:00N 01°15' E 103°55'0 0.2
2018-Jun-01 17:30N 01°15' E 103°55'0 0.3
2018-Jun-01 17:00N 01°15' E 103°55'0 0.1
2018-Jun-01 16:30N 01°15' E 103°55'0 0.1
2018-Jun-01 15:57N 01°15' E 103°55'0 0.0
2018-Jun-01 15:27N 01°15' E 103°55'0 0.0
2018-Jun-01 14:51N 01°15' E 103°55'0 0.1
2018-Jun-01 14:27N 01°15' E 103°55'0 0.1
2018-Jun-01 13:57N 01°15' E 103°55'0 0.0
2018-Jun-01 13:30N 01°15' E 103°55'0 0.0
2018-Jun-01 12:51N 01°15' E 103°55'0 0.0
2018-Jun-01 12:27N 01°15' E 103°55'0 0.0
2018-Jun-01 11:57N 01°15' E 103°55'0 0.0
2018-Jun-01 11:28N 01°15' E 103°55'0 0.0
2018-Jun-01 11:00N 01°15' E 103°55'0 0.1
2018-Jun-01 10:30N 01°15' E 103°55'0 0.2
2018-Jun-01 10:00N 01°15' E 103°55'0 0.2
2018-Jun-01 09:27N 01°15' E 103°55'0 0.0
2018-Jun-01 09:00N 01°15' E 103°55'0 0.1
2018-Jun-01 08:27N 01°15' E 103°55'0 0.1
2018-Jun-01 08:00N 01°15' E 103°55'0 0.0
2018-Jun-01 07:21N 01°15' E 103°55'0 0.0
2018-Jun-01 07:00N 01°15' E 103°55'0 0.1
2018-Jun-01 06:21N 01°15' E 103°55'0 0.1
2018-Jun-01 06:00N 01°15' E 103°55'0 0.1
2018-Jun-01 05:30N 01°15' E 103°55'0 0.0
2018-Jun-01 05:00N 01°15' E 103°55'0 0.0
2018-Jun-01 04:30N 01°15' E 103°55'0 0.1
2018-Jun-01 04:00N 01°15' E 103°55'0 0.0
2018-Jun-01 03:30N 01°15' E 103°55'0 0.1
2018-Jun-01 02:57N 01°15' E 103°55'0 0.0
2018-Jun-01 02:27N 01°15' E 103°55'0 0.0
2018-Jun-01 02:00N 01°15' E 103°55'0 0.0
2018-Jun-01 01:27N 01°15' E 103°55'0 0.0
2018-Jun-01 01:00N 01°15' E 103°55'1 1.2
2018-Jun-01 00:30N 01°15' E 103°56'3 5.5
2018-Jun-01 00:00N 01°16' E 103°58'1 2.9
2018-May-31 23:30N 01°16' E 103°60'2 4.2
2018-May-31 23:00N 01°16' E 104°02'2 4.6
2018-May-31 22:30N 01°16' E 104°04'3 5.6
2018-May-31 22:00N 01°17' E 104°07'3 5.6
2018-May-31 21:29N 01°17' E 104°10'3 5.4
2018-May-31 21:00N 01°17' E 104°12'3 5.1
2018-May-31 20:30N 01°18' E 104°15'3 6.0
2018-May-31 20:00N 01°19' E 104°18'3 5.2
2018-May-31 19:30N 01°19' E 104°20'3 5.3
2018-May-31 18:59N 01°21' E 104°22'2 4.1
2018-May-31 18:30N 01°23' E 104°24'2 4.6
2018-May-31 17:59N 01°24' E 104°25'3 5.0
2018-May-31 17:25N 01°26' E 104°28'2 5.0
2018-May-31 16:59N 01°27' E 104°29'3 5.1
2018-May-31 16:29N 01°29' E 104°31'3 5.7
2018-May-31 15:59N 01°31' E 104°33'4 5.7
2018-May-31 15:21N 01°34' E 104°36'3 6.2
2018-May-31 14:55N 01°36' E 104°37'3 6.5
2018-May-31 14:26N 01°39' E 104°39'5 6.5
2018-May-31 13:42N 01°43' E 104°41'5 6.3
2018-May-31 12:59N 01°47' E 104°43'20 6.1
2018-May-31 09:40N 02°05' E 104°52'  
2018-May-25 22:12N 22°27' E 119°46'514.0
2018-May-25 21:48N 22°29' E 119°52'413.5
2018-May-25 21:28N 22°34' E 119°53'714.6
2018-May-25 21:00N 22°40' E 119°53'714.3
2018-May-25 20:30N 22°47' E 119°53'713.7
2018-May-25 19:59N 22°55' E 119°54'3513.7
2018-May-25 17:27N 23°29' E 119°54'2013.3
2018-May-25 15:55N 23°49' E 119°48'1114.3
2018-May-25 15:09N 23°54' E 119°37'215.7
2018-May-25 15:00N 23°55' E 119°35'1015.1
2018-May-25 14:19N 23°58' E 119°24'413.3
2018-May-25 13:59N 24°01' E 119°21'714.0
2018-May-25 13:30N 24°08' E 119°20'1612.8
2018-May-25 12:14N 24°24' E 119°20'313.2
2018-May-25 11:59N 24°27' E 119°23'6112.9
2018-May-25 07:16N 25°10' E 120°10'412.9
2018-May-25 07:00N 25°12' E 120°13'339 9.7
2018-May-23 20:06N 30°01' E 123°33'110.7
2018-May-23 20:00N 30°02' E 123°34'1011.0
2018-May-23 19:07N 30°12' E 123°37'1 9.9
2018-May-23 18:59N 30°13' E 123°38'2311.3
2018-May-23 16:57N 30°35' E 123°47'1611.8
2018-May-23 15:33N 30°50' E 123°54'111.5
2018-May-23 15:30N 30°51' E 123°54'711.7
2018-May-23 14:57N 30°57' E 123°56'511.9
2018-May-23 14:29N 31°02' E 123°58'611.8
2018-May-23 14:00N 31°08' E 123°58'  
Track history (hours):
 
Tides and Currents Weather Stations Pressure Air Temp Water Temp Dewpoint Dewpoint Depression Visibility Wind Speed Wind Dir Waves Ship Positions

Adventure

Last reported at 2018-Jun-02 13:47 UTC. Time now 2018-Jun-22 18:47 UTC.
Position N 02°03' E 102°09'.
Warning: this ship's position is 20 days out of date.

Length 333 m; draft 11 m.

Type: Tanker. MMSI: 240644000.

Date/timePositionNaut miles runAvg speedWind from/ knotsBaromVisibWave heightAir tempDewpointWater temp
2018-Jun-02 13:47N 02°03' E 102°09'64 9.8
2018-Jun-02 07:16N 01°30' E 103°04'3 9.3
2018-Jun-02 06:55N 01°28' E 103°07'6 8.7
2018-Jun-02 06:11N 01°24' E 103°12'4 8.4
2018-Jun-02 05:42N 01°22' E 103°15'2 8.2
2018-Jun-02 05:31N 01°21' E 103°16'4 8.0
2018-Jun-02 04:57N 01°18' E 103°20'4 7.9
2018-Jun-02 04:30N 01°16' E 103°23'4 7.7
2018-Jun-02 04:00N 01°14' E 103°26'5 9.5
2018-Jun-02 03:30N 01°12' E 103°30'611.0
2018-Jun-02 03:00N 01°12' E 103°36'511.1
2018-Jun-02 02:30N 01°10' E 103°41'5 9.1
2018-Jun-02 02:01N 01°09' E 103°46'510.5
2018-Jun-02 01:30N 01°11' E 103°50'3 6.9
2018-Jun-02 01:00N 01°13' E 103°53'3 4.2
2018-Jun-02 00:24N 01°15' E 103°55'0 0.2
2018-Jun-02 00:00N 01°15' E 103°55'0 0.0
2018-Jun-01 23:30N 01°15' E 103°55'0 0.0
2018-Jun-01 23:00N 01°15' E 103°55'0 0.0
2018-Jun-01 22:30N 01°15' E 103°55'0 0.1
2018-Jun-01 22:00N 01°15' E 103°55'0 0.1
2018-Jun-01 21:30N 01°15' E 103°55'0 0.1
2018-Jun-01 20:54N 01°15' E 103°55'0 0.1
2018-Jun-01 20:27N 01°15' E 103°55'0 0.1
2018-Jun-01 20:00N 01°15' E 103°55'0 0.0
2018-Jun-01 19:30N 01°15' E 103°55'0 0.0
2018-Jun-01 19:00N 01°15' E 103°55'0 0.0
2018-Jun-01 18:27N 01°15' E 103°55'0 0.2
2018-Jun-01 18:00N 01°15' E 103°55'0 0.2
2018-Jun-01 17:30N 01°15' E 103°55'0 0.3
2018-Jun-01 17:00N 01°15' E 103°55'0 0.1
2018-Jun-01 16:30N 01°15' E 103°55'0 0.1
2018-Jun-01 15:57N 01°15' E 103°55'0 0.0
2018-Jun-01 15:27N 01°15' E 103°55'0 0.0
2018-Jun-01 14:51N 01°15' E 103°55'0 0.1
2018-Jun-01 14:27N 01°15' E 103°55'0 0.1
2018-Jun-01 13:57N 01°15' E 103°55'0 0.0
2018-Jun-01 13:30N 01°15' E 103°55'0 0.0
2018-Jun-01 12:51N 01°15' E 103°55'0 0.0
2018-Jun-01 12:27N 01°15' E 103°55'0 0.0
2018-Jun-01 11:57N 01°15' E 103°55'0 0.0
2018-Jun-01 11:28N 01°15' E 103°55'0 0.0
2018-Jun-01 11:00N 01°15' E 103°55'0 0.1
2018-Jun-01 10:30N 01°15' E 103°55'0 0.2
2018-Jun-01 10:00N 01°15' E 103°55'0 0.2
2018-Jun-01 09:27N 01°15' E 103°55'0 0.0
2018-Jun-01 09:00N 01°15' E 103°55'0 0.1
2018-Jun-01 08:27N 01°15' E 103°55'0 0.1
2018-Jun-01 08:00N 01°15' E 103°55'0 0.0
2018-Jun-01 07:21N 01°15' E 103°55'0 0.0
2018-Jun-01 07:00N 01°15' E 103°55'0 0.1
2018-Jun-01 06:21N 01°15' E 103°55'0 0.1
2018-Jun-01 06:00N 01°15' E 103°55'0 0.1
2018-Jun-01 05:30N 01°15' E 103°55'0 0.0
2018-Jun-01 05:00N 01°15' E 103°55'0 0.0
2018-Jun-01 04:30N 01°15' E 103°55'0 0.1
2018-Jun-01 04:00N 01°15' E 103°55'0 0.0
2018-Jun-01 03:30N 01°15' E 103°55'0 0.1
2018-Jun-01 02:57N 01°15' E 103°55'0 0.0
2018-Jun-01 02:27N 01°15' E 103°55'0 0.0
2018-Jun-01 02:00N 01°15' E 103°55'0 0.0
2018-Jun-01 01:27N 01°15' E 103°55'0 0.0
2018-Jun-01 01:00N 01°15' E 103°55'1 1.2
2018-Jun-01 00:30N 01°15' E 103°56'3 5.5
2018-Jun-01 00:00N 01°16' E 103°58'1 2.9
2018-May-31 23:30N 01°16' E 103°60'2 4.2
2018-May-31 23:00N 01°16' E 104°02'2 4.6
2018-May-31 22:30N 01°16' E 104°04'3 5.6
2018-May-31 22:00N 01°17' E 104°07'3 5.6
2018-May-31 21:29N 01°17' E 104°10'3 5.4
2018-May-31 21:00N 01°17' E 104°12'3 5.1
2018-May-31 20:30N 01°18' E 104°15'3 6.0
2018-May-31 20:00N 01°19' E 104°18'3 5.2
2018-May-31 19:30N 01°19' E 104°20'3 5.3
2018-May-31 18:59N 01°21' E 104°22'2 4.1
2018-May-31 18:30N 01°23' E 104°24'2 4.6
2018-May-31 17:59N 01°24' E 104°25'3 5.0
2018-May-31 17:25N 01°26' E 104°28'2 5.0
2018-May-31 16:59N 01°27' E 104°29'3 5.1
2018-May-31 16:29N 01°29' E 104°31'3 5.7
2018-May-31 15:59N 01°31' E 104°33'4 5.7
2018-May-31 15:21N 01°34' E 104°36'3 6.2
2018-May-31 14:55N 01°36' E 104°37'3 6.5
2018-May-31 14:26N 01°39' E 104°39'5 6.5
2018-May-31 13:42N 01°43' E 104°41'5 6.3
2018-May-31 12:59N 01°47' E 104°43'20 6.1
2018-May-31 09:40N 02°05' E 104°52'  
2018-May-25 22:12N 22°27' E 119°46'514.0
2018-May-25 21:48N 22°29' E 119°52'413.5
2018-May-25 21:28N 22°34' E 119°53'714.6
2018-May-25 21:00N 22°40' E 119°53'714.3
2018-May-25 20:30N 22°47' E 119°53'713.7
2018-May-25 19:59N 22°55' E 119°54'3513.7
2018-May-25 17:27N 23°29' E 119°54'2013.3
2018-May-25 15:55N 23°49' E 119°48'1114.3
2018-May-25 15:09N 23°54' E 119°37'215.7
2018-May-25 15:00N 23°55' E 119°35'1015.1
2018-May-25 14:19N 23°58' E 119°24'413.3
2018-May-25 13:59N 24°01' E 119°21'714.0
2018-May-25 13:30N 24°08' E 119°20'1612.8
2018-May-25 12:14N 24°24' E 119°20'313.2
2018-May-25 11:59N 24°27' E 119°23'6112.9
2018-May-25 07:16N 25°10' E 120°10'412.9
2018-May-25 07:00N 25°12' E 120°13'339 9.7
2018-May-23 20:06N 30°01' E 123°33'110.7
2018-May-23 20:00N 30°02' E 123°34'1011.0
2018-May-23 19:07N 30°12' E 123°37'1 9.9
2018-May-23 18:59N 30°13' E 123°38'2311.3
2018-May-23 16:57N 30°35' E 123°47'1611.8
2018-May-23 15:33N 30°50' E 123°54'111.5
2018-May-23 15:30N 30°51' E 123°54'711.7
2018-May-23 14:57N 30°57' E 123°56'511.9
2018-May-23 14:29N 31°02' E 123°58'611.8
2018-May-23 14:00N 31°08' E 123°58'  

Dump ship's entire track history